General Electric Net Profit Margin 2006-2021 | GE

Current and historical net profit margin for General Electric (GE) from 2006 to 2021. Net profit margin can be defined as net Income as a portion of total sales revenue. General Electric net profit margin for the three months ending June 30, 2021 was .
General Electric Net Profit Margin Historical Data
Date TTM Revenue TTM Net Income Net Margin
2021-06-30 $78.72B $-2.81B -3.57%
2021-03-31 $77.25B $-3.80B -4.92%
2020-12-31 $79.62B $5.23B 6.57%
2020-09-30 $81.95B $3.33B 4.06%
2020-06-30 $85.89B $-4.95B -5.76%
2020-03-31 $92.50B $-2.83B -3.06%
2019-12-31 $95.21B $-5.44B -5.71%
2019-09-30 $85.65B $-5.40B -6.31%
2019-06-30 $85.68B $-18.75B -21.88%
2019-03-31 $91.43B $-18.07B -19.76%
2018-12-31 $97.01B $-22.80B -23.50%
2018-09-30 $92.98B $-34.38B -36.97%
2018-06-30 $100.25B $-10.25B -10.22%
2018-03-31 $100.19B $-9.99B -9.97%
2017-12-31 $99.28B $-8.92B -8.98%
2017-09-30 $115.50B $4.24B 3.67%
2017-06-30 $114.11B $4.91B 4.30%
2017-03-31 $118.51B $6.79B 5.73%
2016-12-31 $119.47B $6.85B 5.73%
2016-09-30 $124.50B $10.97B 8.81%
2016-06-30 $123.26B $11.48B 9.32%
2016-03-31 $118.99B $7.37B 6.19%
2015-12-31 $117.39B $-6.14B -5.23%
2015-09-30 $102.76B $-7.28B -7.08%
2015-06-30 $106.84B $-6.24B -5.84%
2015-03-31 $109.88B $-1.34B -1.22%
2014-12-31 $117.18B $15.23B 13.00%
2014-09-30 $105.50B $13.29B 12.59%
2014-06-30 $109.05B $12.94B 11.87%
2014-03-31 $111.85B $12.53B 11.20%
2013-12-31 $113.25B $13.06B 11.53%
2013-09-30 $144.62B $13.86B 9.59%
2013-06-30 $145.21B $14.16B 9.75%
2013-03-31 $146.55B $14.13B 9.64%
2012-12-31 $146.68B $13.64B 9.30%
2012-09-30 $144.96B $13.36B 9.22%
2012-06-30 $144.07B $12.21B 8.48%
2012-03-31 $143.29B $12.80B 8.93%
2011-12-31 $146.54B $13.12B 8.95%
2011-09-30 $150.38B $13.85B 9.21%
2011-06-30 $150.39B $13.49B 8.97%
2011-03-31 $151.69B $12.83B 8.46%
2010-12-31 $149.57B $11.34B 7.58%
2010-09-30 $147.60B $9.82B 6.65%
2010-06-30 $150.02B $10.26B 6.84%
2010-03-31 $152.20B $9.84B 6.47%
2009-12-31 $154.44B $10.73B 6.94%
2009-09-30 $160.62B $11.43B 7.12%
2009-06-30 $170.06B $13.33B 7.84%
2009-03-31 $177.79B $15.79B 8.88%
2008-12-31 $181.58B $17.34B 9.55%
2008-09-30 $184.69B $20.38B 11.04%
2008-06-30 $179.97B $21.63B 12.02%
2008-03-31 $175.52B $21.94B 12.50%
2007-12-31 $172.49B $22.21B 12.88%
2007-09-30 $162.02B $22.00B 13.58%
2007-06-30 $157.38B $21.31B 13.54%
2007-03-31 $152.74B $20.87B 13.67%
2006-12-31 $151.57B $20.74B 13.68%
2006-09-30 $142.97B $17.68B 12.37%
2006-06-30 $141.47B $17.49B 12.37%
2006-03-31 $140.26B $17.20B 12.26%
2005-12-31 $136.58B $16.72B 12.24%
Sector Industry Market Cap Revenue
Multi-Sector Conglomerates Diversified Operations $109.791B $79.619B
General Electric is a high-tech industrial company that operates worldwide through its four industrial segments, Power, Renewable Energy, Aviation and Healthcare, and its financial services segment, Capital. The Power segment offers services energy production services. The Renewable Energy segment provides wind turbine platforms, hardware and software, offshore wind turbines, products and services to hydropower industry, blades for wind turbines, and high voltage equipment. The Aviation segment provides jet engines and turboprops for commercial airframes, maintenance, component repair, and overhaul services. The Healthcare segment provides healthcare technologies in medical imaging, digital solutions, drug discovery, biopharmaceutical manufacturing technologies and performance enhancement solutions. The Capital segment leases and finances aircraft, aircraft engines and helicopters, and provides financial solutions. GE is headquartered in Boston, MA.
Stock Name Country Market Cap PE Ratio
Danaher (DHR) United States $231.382B 36.92
Honeywell (HON) United States $148.940B 28.50
3M (MMM) United States $104.462B 17.75
Jardine Matheson Holdings (JMHLY) China $37.243B 0.00
Citic (CTPCY) Hong Kong, SAR China $33.919B 0.00
Ck Hutchison Holdings (CKHUY) Hong Kong, SAR China $24.924B 0.00
Mitsubishi (MSBHF) Japan $24.128B 16.74
China Resources Enterprise (CRHKY) Hong Kong, SAR China $23.277B 0.00
Sumitomo (SSUMY) Japan $18.175B 0.00
Marubeni (MARUY) Japan $14.563B 5.67
Koninklijke KPN (KKPNF) Netherlands $13.453B 0.00
Icahn Enterprises (IEP) United States $13.147B 0.00
Bunzl (BZLFY) United Kingdom $11.529B 0.00
Carlisle (CSL) United States $10.481B 28.52
Orkla Asa (ORKLY) Norway $8.833B 14.46
Grupo Carso SA De CV (GPOVY) Mexico $7.917B 20.00
ITT (ITT) United States $7.346B 22.28
China Merchants Holdings (CMHHY) Hong Kong, SAR China $6.274B 0.00
Crane (CR) United States $5.307B 16.34
Macquarie Infrastructure (MIC) United States $3.518B 16.28
Federal Signal (FSS) United States $2.338B 22.03
Raven Industries (RAVN) United States $2.063B 57.45
Shanghai Industrial Holdings (SGHIY) Hong Kong, SAR China $1.767B 0.00
Barloworld (BRRAY) South Africa $1.554B 0.00
First Pacific (FPAFY) Hong Kong, SAR China $1.443B 0.00
Griffon (GFF) United States $1.319B 12.19
Lydall (LDL) United States $1.118B 68.90
Steel Partners Holdings LP (SPLP) United States $0.608B 5.05
National Presto Industries (NPK) United States $0.572B 12.91
Lsb Industries (LXU) United States $0.275B 0.00
PHI Group (PHIL) United States $0.192B 0.00
Ecoark Holdings (ZEST) United States $0.132B 0.00
Ault Global Holdings (DPW) United States $0.132B 0.00
KUSHCO HOLDINGS, INC (KSHB) United States $0.111B 0.00
Noble Group (NOBGY) Hong Kong, SAR China $0.101B 0.00
Great Elm (GEG) United States $0.063B 0.00
Live Ventures (LIVE) United States $0.054B 2.60
ALJ Regional Holdings (ALJJ) United States $0.045B 0.00
Servotronics (SVT) United States $0.031B 0.00
Antelope Enterprise Holdings (AEHL) China $0.016B 0.00
Star Equity Holdings (STRR) United States $0.013B 0.00